createdAt,value
2018-12-23T00:00:04.750Z,6.90
2018-12-23T00:02:40.548Z,6.90
2018-12-23T00:05:12.733Z,6.90
2018-12-23T00:07:44.856Z,6.90
2018-12-23T00:10:20.175Z,6.80
2018-12-23T00:12:52.497Z,6.80
2018-12-23T00:15:24.730Z,6.90
2018-12-23T00:17:56.752Z,6.90
2018-12-23T00:20:32.086Z,6.90
2018-12-23T00:23:04.387Z,6.90
2018-12-23T00:25:36.543Z,6.90
2018-12-23T00:28:08.705Z,6.90
2018-12-23T00:30:46.291Z,6.90
2018-12-23T00:33:18.499Z,6.90
2018-12-23T00:35:53.988Z,6.80
2018-12-23T00:38:29.296Z,6.80
2018-12-23T00:41:04.997Z,6.80
2018-12-23T00:43:40.939Z,6.80
2018-12-23T00:46:13.186Z,6.70
2018-12-23T00:48:45.392Z,6.70
2018-12-23T00:51:17.421Z,6.70
2018-12-23T00:53:57.918Z,6.80
2018-12-23T00:56:30.153Z,6.70
2018-12-23T00:59:05.440Z,6.70
2018-12-23T01:01:40.934Z,6.70
2018-12-23T01:04:17.049Z,6.70
2018-12-23T01:06:52.551Z,6.70
2018-12-23T01:09:29.973Z,6.70
2018-12-23T01:12:01.986Z,6.70
2018-12-23T01:14:37.407Z,6.70
2018-12-23T01:17:13.484Z,6.70
2018-12-23T01:19:45.599Z,6.70
2018-12-23T01:22:20.880Z,6.60
2018-12-23T01:24:56.211Z,6.60
2018-12-23T01:27:28.413Z,6.60
2018-12-23T01:30:00.672Z,6.50
2018-12-23T01:32:36.351Z,6.60
2018-12-23T01:35:11.697Z,6.60
2018-12-23T01:37:50.011Z,6.70
2018-12-23T01:40:25.523Z,6.70
2018-12-23T01:43:00.881Z,6.70
2018-12-23T01:45:33.080Z,6.70
2018-12-23T01:48:05.253Z,6.70
2018-12-23T01:50:41.582Z,6.70
2018-12-23T01:53:16.848Z,6.70
2018-12-23T01:55:52.176Z,6.80
2018-12-23T01:58:24.441Z,6.80
2018-12-23T02:00:59.728Z,6.80
2018-12-23T02:03:35.687Z,6.80
2018-12-23T02:06:13.361Z,6.70
2018-12-23T02:08:45.453Z,6.70
2018-12-23T02:11:41.931Z,6.70
2018-12-23T02:14:13.287Z,6.70
2018-12-23T02:16:48.692Z,6.60
2018-12-23T02:19:24.310Z,6.60
2018-12-23T02:22:00.340Z,6.50
2018-12-23T02:24:35.848Z,6.50
2018-12-23T02:27:08.110Z,6.50
2018-12-23T02:29:43.513Z,6.50
2018-12-23T02:32:15.728Z,6.40
2018-12-23T02:34:47.755Z,6.40
2018-12-23T02:37:19.064Z,6.40
2018-12-23T02:39:51.199Z,6.40
2018-12-23T02:42:23.345Z,6.40
2018-12-23T02:44:59.356Z,6.40
2018-12-23T02:47:34.658Z,6.40
2018-12-23T02:50:10.167Z,6.40
2018-12-23T02:52:46.366Z,6.40
2018-12-23T02:55:22.083Z,6.40
2018-12-23T02:57:57.570Z,6.50
2018-12-23T03:00:33.972Z,6.40
2018-12-23T03:03:06.029Z,6.40
2018-12-23T03:05:38.223Z,6.40
2018-12-23T03:08:09.563Z,6.40
2018-12-23T03:10:45.872Z,6.40
2018-12-23T03:13:18.071Z,6.40
2018-12-23T03:15:53.457Z,6.40
2018-12-23T03:18:30.687Z,6.40
2018-12-23T03:21:02.775Z,6.40
2018-12-23T03:23:38.360Z,6.30
2018-12-23T03:26:15.591Z,6.30
2018-12-23T03:28:51.112Z,6.30
2018-12-23T03:31:23.277Z,6.30
2018-12-23T03:33:55.475Z,6.30
2018-12-23T03:36:27.693Z,6.30
2018-12-23T03:38:59.925Z,6.30
2018-12-23T03:41:32.213Z,6.30
2018-12-23T03:44:04.304Z,6.30
2018-12-23T03:46:42.628Z,6.40
2018-12-23T03:49:18.026Z,6.40
2018-12-23T03:51:53.344Z,6.40
2018-12-23T03:54:29.585Z,6.30
2018-12-23T03:57:09.051Z,6.30
2018-12-23T03:59:53.192Z,6.30
2018-12-23T04:02:29.143Z,6.30
2018-12-23T04:05:01.253Z,6.30
2018-12-23T04:07:32.787Z,6.30
2018-12-23T04:10:50.789Z,6.30
2018-12-23T04:13:32.384Z,6.30
2018-12-23T04:16:13.291Z,6.30
2018-12-23T04:18:54.944Z,6.20
2018-12-23T04:21:36.258Z,6.20
2018-12-23T04:24:05.676Z,6.20
2018-12-23T04:26:54.085Z,6.10
2018-12-23T04:29:42.588Z,6.20
2018-12-23T04:32:23.364Z,6.10
2018-12-23T04:35:04.825Z,6.10
2018-12-23T04:37:45.936Z,6.20
2018-12-23T04:40:27.077Z,6.20
2018-12-23T04:43:07.747Z,6.20
2018-12-23T04:45:48.679Z,6.10
2018-12-23T04:48:34.015Z,6.10
2018-12-23T04:51:14.784Z,6.10
2018-12-23T04:53:55.602Z,6.10
2018-12-23T04:56:25.023Z,6.10
2018-12-23T04:59:13.532Z,6.10
2018-12-23T05:02:02.130Z,6.10
2018-12-23T05:04:43.624Z,6.10
2018-12-23T05:07:24.753Z,6.00
2018-12-23T05:10:05.952Z,6.00
2018-12-23T05:12:47.253Z,5.90
2018-12-23T05:15:34.188Z,5.90
2018-12-23T05:18:15.766Z,5.80
2018-12-23T05:20:56.993Z,5.80
2018-12-23T05:23:37.820Z,5.80
2018-12-23T05:26:19.030Z,5.80
2018-12-23T05:29:00.348Z,5.80
2018-12-23T05:31:41.293Z,5.80
2018-12-23T05:34:22.575Z,5.80
2018-12-23T05:37:03.713Z,5.90
2018-12-23T05:39:44.838Z,5.90
2018-12-23T05:42:25.433Z,5.90
2018-12-23T05:45:06.835Z,5.90
2018-12-23T05:47:47.831Z,5.90
2018-12-23T05:50:29.344Z,5.90
2018-12-23T05:53:10.814Z,5.90
2018-12-23T05:55:51.797Z,5.90
2018-12-23T05:58:32.652Z,5.90
2018-12-23T06:01:13.668Z,6.00
2018-12-23T06:04:00.666Z,6.00
2018-12-23T06:06:41.352Z,6.00
2018-12-23T06:09:22.546Z,6.00
2018-12-23T06:12:03.373Z,5.90
2018-12-23T06:14:44.805Z,6.00
2018-12-23T06:17:26.150Z,5.90
2018-12-23T06:20:07.114Z,5.90
2018-12-23T06:25:46.048Z,5.90
2018-12-23T06:28:34.553Z,5.90
2018-12-23T06:31:15.784Z,5.90
2018-12-23T06:33:58.128Z,5.90
2018-12-23T06:36:41.524Z,5.80
2018-12-23T06:39:22.285Z,5.80
2018-12-23T06:42:03.534Z,5.80
2018-12-23T06:44:44.359Z,5.70
2018-12-23T06:47:13.767Z,5.60
2018-12-23T06:50:02.250Z,5.70
2018-12-23T06:52:50.720Z,5.70
2018-12-23T06:55:32.370Z,5.60
2018-12-23T06:58:13.920Z,5.60
2018-12-23T07:00:55.148Z,5.60
2018-12-23T07:03:36.708Z,5.60
2018-12-23T07:06:17.549Z,5.60
2018-12-23T07:08:58.662Z,5.60
2018-12-23T07:11:39.470Z,5.60
2018-12-23T07:14:20.897Z,5.60
2018-12-23T07:17:03.687Z,5.50
2018-12-23T07:19:45.119Z,5.50
2018-12-23T07:22:26.191Z,5.50
2018-12-23T07:25:07.348Z,5.60
2018-12-23T07:27:48.535Z,5.60
2018-12-23T07:30:29.809Z,5.60
2018-12-23T07:33:10.546Z,5.60
2018-12-23T07:35:51.757Z,5.60
2018-12-23T07:38:32.423Z,5.60
2018-12-23T07:41:13.866Z,5.60
2018-12-23T07:47:04.142Z,5.70
2018-12-23T07:49:45.643Z,5.70
2018-12-23T07:52:26.658Z,5.80
2018-12-23T07:55:08.131Z,5.80
2018-12-23T07:57:49.701Z,5.90
2018-12-23T08:00:30.839Z,5.90
2018-12-23T08:03:11.989Z,5.90
2018-12-23T08:05:41.529Z,5.90
2018-12-23T08:08:30.002Z,6.10
2018-12-23T08:11:18.460Z,6.10
2018-12-23T08:14:07.126Z,6.20
2018-12-23T08:16:47.769Z,6.20
2018-12-23T08:19:28.866Z,6.20
2018-12-23T08:21:58.366Z,6.30
2018-12-23T08:24:46.780Z,6.30
2018-12-23T08:27:35.360Z,6.40
2018-12-23T08:30:16.512Z,6.50
2018-12-23T08:32:57.872Z,6.70
2018-12-23T08:35:38.751Z,6.80
2018-12-23T08:38:19.692Z,6.90
2018-12-23T08:41:00.783Z,6.90
2018-12-23T08:43:41.635Z,6.90
2018-12-23T08:46:22.522Z,7.00
2018-12-23T08:49:03.590Z,7.00
2018-12-23T08:51:45.885Z,7.00
2018-12-23T08:54:27.101Z,7.10
2018-12-23T08:57:08.096Z,7.00
2018-12-23T08:59:49.629Z,7.10
2018-12-23T09:02:30.808Z,7.20
2018-12-23T09:05:12.240Z,7.20
2018-12-23T09:07:53.795Z,7.20
2018-12-23T09:10:35.066Z,7.20
2018-12-23T09:13:23.459Z,7.20
2018-12-23T09:18:55.565Z,7.20
2018-12-23T09:21:36.992Z,7.30
2018-12-23T09:24:06.339Z,7.30
2018-12-23T09:26:54.865Z,7.40
2018-12-23T09:29:43.285Z,7.40
2018-12-23T09:32:24.169Z,7.40
2018-12-23T09:35:05.253Z,7.40
2018-12-23T09:37:46.720Z,7.40
2018-12-23T09:40:27.500Z,7.40
2018-12-23T09:43:09.239Z,7.40
2018-12-23T09:45:50.277Z,7.50
2018-12-23T09:48:31.148Z,7.60
2018-12-23T09:51:12.040Z,7.70
2018-12-23T09:53:53.101Z,7.70
2018-12-23T09:56:34.416Z,7.70
2018-12-23T09:59:15.563Z,7.80
2018-12-23T10:01:57.203Z,7.80
2018-12-23T10:04:38.116Z,7.90
2018-12-23T10:07:19.060Z,7.90
2018-12-23T10:10:00.659Z,8.00
2018-12-23T10:12:41.660Z,8.00
2018-12-23T10:15:23.040Z,8.00
2018-12-23T10:18:04.207Z,8.00
2018-12-23T10:20:45.343Z,8.00
2018-12-23T10:23:26.736Z,8.00
2018-12-23T10:26:07.999Z,8.10
2018-12-23T10:28:49.165Z,8.10
2018-12-23T10:31:30.264Z,8.20
2018-12-23T10:34:11.556Z,8.20
2018-12-23T10:36:52.273Z,8.20
2018-12-23T10:39:33.224Z,8.30
2018-12-23T10:42:13.994Z,8.40
2018-12-23T10:44:55.188Z,8.40
2018-12-23T10:47:36.079Z,8.40
2018-12-23T10:50:17.073Z,8.40
2018-12-23T10:52:58.514Z,8.40
2018-12-23T10:55:59.342Z,8.30
2018-12-23T10:58:40.163Z,8.40
2018-12-23T11:01:21.300Z,8.40
2018-12-23T11:04:02.134Z,8.50
2018-12-23T11:06:45.582Z,8.50
2018-12-23T11:09:26.247Z,8.60
2018-12-23T11:12:07.661Z,8.60
2018-12-23T11:14:48.461Z,8.60
2018-12-23T11:17:29.715Z,8.60
2018-12-23T11:20:10.580Z,8.50
2018-12-23T11:22:51.448Z,8.50
2018-12-23T11:25:32.514Z,8.50
2018-12-23T11:28:02.015Z,8.40
2018-12-23T11:30:50.509Z,8.40
2018-12-23T11:33:31.185Z,8.40
2018-12-23T11:36:11.969Z,8.40
2018-12-23T11:38:52.774Z,8.40
2018-12-23T11:41:22.300Z,8.40
2018-12-23T11:44:10.772Z,8.30
2018-12-23T11:46:59.259Z,8.30
2018-12-23T11:49:41.078Z,8.30
2018-12-23T11:52:22.579Z,8.30
2018-12-23T11:55:03.598Z,8.20
2018-12-23T11:57:44.569Z,8.20
2018-12-23T12:00:25.769Z,8.20
2018-12-23T12:03:06.448Z,8.20
2018-12-23T12:05:47.231Z,8.20
2018-12-23T12:08:28.062Z,8.20
2018-12-23T12:11:09.441Z,8.20
2018-12-23T12:13:50.580Z,8.20
2018-12-23T12:16:20.055Z,8.10
2018-12-23T12:22:14.459Z,8.10
2018-12-23T12:27:44.160Z,8.10
2018-12-23T12:30:25.704Z,8.20
2018-12-23T12:33:07.133Z,8.20
2018-12-23T12:35:48.611Z,8.20
2018-12-23T12:38:29.949Z,8.10
2018-12-23T12:41:10.797Z,8.10
2018-12-23T12:43:51.670Z,8.20
2018-12-23T12:46:32.757Z,8.20
2018-12-23T12:49:13.602Z,8.20
2018-12-23T12:51:55.206Z,8.10
2018-12-23T12:54:36.195Z,8.10
2018-12-23T12:57:16.952Z,8.20
2018-12-23T12:59:58.152Z,8.10
2018-12-23T13:02:39.697Z,8.10
2018-12-23T13:05:21.312Z,8.10
2018-12-23T13:08:02.772Z,8.10
2018-12-23T13:10:43.552Z,8.20
2018-12-23T13:13:24.667Z,8.20
2018-12-23T13:16:05.815Z,8.20
2018-12-23T13:18:46.946Z,8.20
2018-12-23T13:21:27.649Z,8.20
2018-12-23T13:24:08.344Z,8.20
2018-12-23T13:26:49.201Z,8.20
2018-12-23T13:29:30.390Z,8.20
2018-12-23T13:32:11.667Z,8.20
2018-12-23T13:34:52.627Z,8.20
2018-12-23T13:37:33.939Z,8.30
2018-12-23T13:40:14.956Z,8.30
2018-12-23T13:42:55.962Z,8.20
2018-12-23T13:45:37.143Z,8.20
2018-12-23T13:48:18.204Z,8.20
2018-12-23T13:51:00.629Z,8.20
2018-12-23T13:53:44.602Z,8.20
2018-12-23T13:56:25.392Z,8.10
2018-12-23T13:59:06.650Z,8.10
2018-12-23T14:02:14.179Z,8.10
2018-12-23T14:04:55.223Z,8.10
2018-12-23T14:07:35.946Z,8.10
2018-12-23T14:10:17.083Z,8.10
2018-12-23T14:12:59.977Z,8.10
2018-12-23T14:15:41.542Z,8.10
2018-12-23T14:18:22.473Z,8.10
2018-12-23T14:21:03.584Z,8.10
2018-12-23T14:23:44.674Z,8.10
2018-12-23T14:26:25.347Z,8.10
2018-12-23T14:29:08.711Z,8.10
2018-12-23T14:31:51.700Z,8.10
2018-12-23T14:34:32.749Z,8.10
2018-12-23T14:37:14.144Z,8.10
2018-12-23T14:39:55.489Z,8.00
2018-12-23T14:42:36.763Z,8.00
2018-12-23T14:45:17.568Z,8.00
2018-12-23T14:47:59.292Z,8.00
2018-12-23T14:50:40.239Z,8.00
2018-12-23T14:53:21.448Z,8.00
2018-12-23T14:56:02.698Z,8.00
2018-12-23T14:58:43.520Z,7.90
2018-12-23T15:01:24.421Z,7.90
2018-12-23T15:04:05.413Z,7.90
2018-12-23T15:06:46.723Z,7.90
2018-12-23T15:09:34.128Z,7.90
2018-12-23T15:12:11.409Z,7.80
2018-12-23T15:14:52.572Z,7.80
2018-12-23T15:17:21.916Z,7.80
2018-12-23T15:20:10.572Z,7.80
2018-12-23T15:22:51.794Z,7.80
2018-12-23T15:25:21.345Z,7.70
2018-12-23T15:28:10.077Z,7.70
2018-12-23T15:30:51.289Z,7.70
2018-12-23T15:33:32.360Z,7.70
2018-12-23T15:36:13.286Z,7.70
2018-12-23T15:38:54.421Z,7.70
2018-12-23T15:41:35.800Z,7.70
2018-12-23T15:44:16.931Z,7.70
2018-12-23T15:46:58.221Z,7.70
2018-12-23T15:49:39.925Z,7.70
2018-12-23T15:52:21.028Z,7.70
2018-12-23T15:55:01.989Z,7.60
2018-12-23T15:57:43.203Z,7.70
2018-12-23T16:00:24.011Z,7.60
2018-12-23T16:03:05.028Z,7.60
2018-12-23T16:05:46.034Z,7.70
2018-12-23T16:08:27.095Z,7.60
2018-12-23T16:10:56.655Z,7.60
2018-12-23T16:13:45.311Z,7.70
2018-12-23T16:16:33.797Z,7.60
2018-12-23T16:19:15.204Z,7.60
2018-12-23T16:21:56.309Z,7.60
2018-12-23T16:24:37.601Z,7.60
2018-12-23T16:27:18.481Z,7.60
2018-12-23T16:29:59.431Z,7.50
2018-12-23T16:32:40.454Z,7.50
2018-12-23T16:35:21.530Z,7.50
2018-12-23T16:38:02.216Z,7.50
2018-12-23T16:40:43.329Z,7.60
2018-12-23T16:43:24.894Z,7.60
2018-12-23T16:46:05.888Z,7.50
2018-12-23T16:48:47.929Z,7.50
2018-12-23T16:51:28.819Z,7.50
2018-12-23T16:54:09.592Z,7.50
2018-12-23T16:56:50.911Z,7.50
2018-12-23T16:59:31.834Z,7.50
2018-12-23T17:02:13.125Z,7.50
2018-12-23T17:04:54.704Z,7.60
2018-12-23T17:07:35.441Z,7.60
2018-12-23T17:10:16.851Z,7.60
2018-12-23T17:12:57.812Z,7.60
2018-12-23T17:15:39.103Z,7.60
2018-12-23T17:18:20.011Z,7.60
2018-12-23T17:21:01.034Z,7.60
2018-12-23T17:23:30.701Z,7.60
2018-12-23T17:26:19.237Z,7.60
2018-12-23T17:28:59.790Z,7.50
2018-12-23T17:31:40.602Z,7.50
2018-12-23T17:34:21.687Z,7.50
2018-12-23T17:37:02.347Z,7.40
2018-12-23T17:39:43.548Z,7.40
2018-12-23T17:42:24.305Z,7.40
2018-12-23T17:45:05.249Z,7.40
2018-12-23T17:47:46.001Z,7.40
2018-12-23T17:50:27.473Z,7.40
2018-12-23T17:53:08.272Z,7.40
2018-12-23T17:55:52.593Z,7.50
2018-12-23T17:58:33.436Z,7.50
2018-12-23T18:01:03.026Z,7.50
2018-12-23T18:03:51.600Z,7.50
2018-12-23T18:06:33.143Z,7.50
2018-12-23T18:09:14.200Z,7.60
2018-12-23T18:11:55.517Z,7.60
2018-12-23T18:14:36.853Z,7.60
2018-12-23T18:17:06.333Z,7.60
2018-12-23T18:19:35.780Z,7.50
2018-12-23T18:22:05.165Z,7.50
2018-12-23T18:24:34.612Z,7.50
2018-12-23T18:27:23.134Z,7.50
2018-12-23T18:30:04.507Z,7.50
2018-12-23T18:32:45.873Z,7.50
2018-12-23T18:35:15.193Z,7.60
2018-12-23T18:38:03.790Z,7.50
2018-12-23T18:40:33.671Z,7.50
2018-12-23T18:43:04.492Z,7.50
2018-12-23T18:45:53.241Z,7.50
2018-12-23T18:48:33.903Z,7.50
2018-12-23T18:51:15.399Z,7.60
2018-12-23T18:53:59.057Z,7.60
2018-12-23T18:56:40.421Z,7.60
2018-12-23T19:02:02.011Z,7.60
2018-12-23T19:04:43.058Z,7.60
2018-12-23T19:07:24.118Z,7.60
2018-12-23T19:10:05.288Z,7.60
2018-12-23T19:12:46.508Z,7.60
2018-12-23T19:15:27.231Z,7.60
2018-12-23T19:18:08.355Z,7.60
2018-12-23T19:20:49.518Z,7.70
2018-12-23T19:23:30.776Z,7.70
2018-12-23T19:26:11.964Z,7.80
2018-12-23T19:28:52.600Z,7.80
2018-12-23T19:31:33.406Z,7.70
2018-12-23T19:34:20.168Z,7.80
2018-12-23T19:37:20.167Z,7.80
2018-12-23T19:40:01.884Z,7.80
2018-12-23T19:42:43.204Z,7.80
2018-12-23T19:45:24.759Z,7.80
2018-12-23T19:48:05.963Z,7.80
2018-12-23T19:50:46.925Z,7.80
2018-12-23T19:53:28.242Z,7.90
2018-12-23T19:56:10.029Z,7.90
2018-12-23T19:58:50.756Z,8.00
2018-12-23T20:01:31.875Z,8.10
2018-12-23T20:04:12.845Z,8.10
2018-12-23T20:06:54.143Z,8.10
2018-12-23T20:09:35.521Z,8.10
2018-12-23T20:12:16.820Z,8.10
2018-12-23T20:15:24.351Z,8.10
2018-12-23T20:18:05.456Z,8.00
2018-12-23T20:20:46.586Z,8.00
2018-12-23T20:23:54.079Z,8.00
2018-12-23T20:27:01.559Z,8.00
2018-12-23T20:29:42.759Z,8.00
2018-12-23T20:32:25.862Z,8.00
2018-12-23T20:35:08.995Z,8.00
2018-12-23T20:37:50.193Z,8.00
2018-12-23T20:40:31.369Z,7.90
2018-12-23T20:43:12.569Z,7.90
2018-12-23T20:45:53.436Z,7.90
2018-12-23T20:48:34.283Z,7.90
2018-12-23T20:51:15.673Z,7.90
2018-12-23T20:53:56.546Z,7.90
2018-12-23T20:56:37.740Z,7.90
2018-12-23T20:59:18.438Z,7.90
2018-12-23T21:01:59.580Z,7.90
2018-12-23T21:04:43.153Z,7.90
2018-12-23T21:07:24.903Z,7.90
2018-12-23T21:10:06.049Z,8.00
2018-12-23T21:12:59.339Z,8.00
2018-12-23T21:16:20.868Z,8.10
2018-12-23T21:18:49.546Z,8.10
2018-12-23T21:21:30.643Z,8.20
2018-12-23T21:24:11.834Z,8.20
2018-12-23T21:26:52.840Z,8.20
2018-12-23T21:29:33.769Z,8.20
2018-12-23T21:32:14.943Z,8.20
2018-12-23T21:34:55.735Z,8.10
2018-12-23T21:37:36.795Z,8.10
2018-12-23T21:40:18.119Z,8.10
2018-12-23T21:42:58.887Z,8.10
2018-12-23T21:46:06.382Z,8.00
2018-12-23T21:49:13.911Z,8.00
2018-12-23T21:52:21.433Z,8.00
2018-12-23T21:55:02.700Z,8.00
2018-12-23T21:57:43.997Z,8.00
2018-12-23T22:00:51.614Z,8.00
2018-12-23T22:03:32.956Z,8.00
2018-12-23T22:06:14.164Z,8.00
2018-12-23T22:09:21.765Z,8.00
2018-12-23T22:12:29.250Z,8.00
2018-12-23T22:15:10.813Z,7.90
2018-12-23T22:17:51.753Z,7.90
2018-12-23T22:20:32.927Z,7.90
2018-12-23T22:23:05.579Z,8.00
2018-12-23T22:28:59.797Z,7.90
2018-12-23T22:31:40.593Z,8.00
2018-12-23T22:34:21.431Z,7.90
2018-12-23T22:36:50.957Z,8.00
2018-12-23T22:39:39.441Z,8.00
2018-12-23T22:42:08.757Z,8.00
2018-12-23T22:44:50.031Z,8.00
2018-12-23T22:47:31.516Z,8.00
2018-12-23T22:50:00.845Z,8.00
2018-12-23T22:52:30.272Z,8.00
2018-12-23T22:55:18.824Z,8.00
2018-12-23T22:58:07.438Z,8.00
2018-12-23T23:00:48.687Z,8.10
2018-12-23T23:03:18.318Z,8.10
2018-12-23T23:06:06.933Z,8.00
2018-12-23T23:08:55.596Z,8.10
2018-12-23T23:11:36.294Z,8.00
2018-12-23T23:14:17.878Z,8.10
2018-12-23T23:16:47.377Z,8.00
2018-12-23T23:19:35.898Z,8.00
2018-12-23T23:22:24.486Z,8.00
2018-12-23T23:25:13.109Z,8.00
2018-12-23T23:27:54.290Z,8.00
2018-12-23T23:30:35.549Z,8.00
2018-12-23T23:33:05.033Z,8.00
2018-12-23T23:35:53.548Z,8.10
2018-12-23T23:38:42.168Z,8.10
2018-12-23T23:41:22.986Z,8.10
2018-12-23T23:44:04.235Z,8.00
2018-12-23T23:46:33.785Z,8.00
2018-12-23T23:49:22.267Z,8.10
2018-12-23T23:52:03.536Z,8.10
2018-12-23T23:54:44.224Z,8.00
2018-12-23T23:57:25.181Z,8.00
